Time;durP1;ratioP1;P1;durP2;ratioP2;P2;SDS_P1;SDS_P2;PMS_P1;PMS_P2;Temp;Humidity;BMP_temperature;BMP_pressure;BME280_temperature;BME280_humidity;BME280_pressure;Samples;Min_cycle;Max_cycle;Signal;HPM_P1;HPM_P2
2021/12/31 00:02:12;;;;;;;5.18;1.60;;;13.40;99.90;;;;;;5036736;28;20029;-62
2021/12/31 00:04:37;;;;;;;6.60;2.00;;;13.40;99.90;;;;;;5036780;28;20037;-62
2021/12/31 00:07:03;;;;;;;5.07;2.00;;;13.30;99.90;;;;;;5045995;28;20047;-63
2021/12/31 00:09:29;;;;;;;15.10;2.53;;;13.30;99.90;;;;;;5044661;28;20052;-62
2021/12/31 00:11:54;;;;;;;3.55;1.70;;;13.30;99.90;;;;;;5039645;28;20444;-63
2021/12/31 00:14:21;;;;;;;6.57;1.92;;;13.30;99.90;;;;;;5045412;28;20042;-62
2021/12/31 00:16:47;;;;;;;6.85;1.65;;;13.30;99.90;;;;;;5033869;28;20045;-62
2021/12/31 00:19:14;;;;;;;5.78;1.70;;;13.20;99.90;;;;;;5041502;28;20531;-62
2021/12/31 00:21:41;;;;;;;7.53;2.00;;;13.20;99.90;;;;;;5035405;28;20037;-62
2021/12/31 00:24:07;;;;;;;6.68;2.22;;;13.20;99.90;;;;;;5033341;28;20411;-62
2021/12/31 00:26:34;;;;;;;7.70;1.75;;;13.10;99.90;;;;;;5038482;28;20041;-62
2021/12/31 00:29:00;;;;;;;7.15;1.58;;;13.10;99.90;;;;;;5029223;28;20026;-62
2021/12/31 00:31:26;;;;;;;6.32;1.33;;;13.10;99.90;;;;;;5034070;28;20039;-62
2021/12/31 00:33:52;;;;;;;5.13;1.65;;;13.20;99.90;;;;;;5037319;28;20033;-62
2021/12/31 00:36:18;;;;;;;3.67;1.42;;;13.20;99.90;;;;;;5039143;28;20534;-61
2021/12/31 00:38:43;;;;;;;4.22;1.38;;;13.20;99.90;;;;;;5034463;28;20042;-63
2021/12/31 00:41:10;;;;;;;4.93;1.40;;;13.30;99.90;;;;;;5034885;28;20039;-61
2021/12/31 00:43:35;;;;;;;12.95;1.65;;;13.30;99.90;;;;;;5026846;28;20037;-61
2021/12/31 00:46:02;;;;;;;5.22;1.58;;;13.30;99.90;;;;;;5037064;28;20044;-62
2021/12/31 00:48:28;;;;;;;6.65;1.42;;;13.40;99.90;;;;;;5036225;28;20094;-61
2021/12/31 00:50:53;;;;;;;7.70;1.70;;;13.40;99.90;;;;;;5037389;28;20127;-61
2021/12/31 00:53:19;;;;;;;5.70;1.17;;;13.40;99.90;;;;;;5038369;28;20120;-62
2021/12/31 00:55:44;;;;;;;2.05;1.08;;;13.50;99.90;;;;;;5038878;28;20108;-61
2021/12/31 00:58:10;;;;;;;4.35;1.55;;;13.50;99.90;;;;;;5041884;28;20033;-61
2021/12/31 01:00:36;;;;;;;7.30;1.38;;;13.60;99.90;;;;;;5037642;28;20061;-61
2021/12/31 01:03:02;;;;;;;3.78;1.60;;;13.60;99.90;;;;;;5040389;28;20037;-62
2021/12/31 01:05:28;;;;;;;5.72;1.42;;;13.50;99.90;;;;;;5038459;28;20057;-61
2021/12/31 01:07:54;;;;;;;4.28;1.20;;;13.60;99.90;;;;;;5036423;28;20057;-62
2021/12/31 01:10:22;;;;;;;7.32;1.30;;;13.60;99.90;;;;;;5040419;28;20029;-61
2021/12/31 01:12:50;;;;;;;3.85;0.90;;;13.60;99.90;;;;;;5035436;28;20041;-62
2021/12/31 01:15:22;;;;;;;4.93;1.98;;;13.60;99.90;;;;;;5036125;28;20527;-61
2021/12/31 01:20:26;;;;;;;4.70;1.08;;;13.70;99.90;;;;;;5030947;28;20060;-62
2021/12/31 01:22:52;;;;;;;3.22;1.08;;;13.70;99.90;;;;;;5031447;28;20065;-62
2021/12/31 01:25:18;;;;;;;5.25;1.10;;;13.70;99.90;;;;;;5037725;28;20115;-62
2021/12/31 01:27:44;;;;;;;2.55;0.77;;;13.70;99.90;;;;;;5033038;28;20512;-61
2021/12/31 01:30:13;;;;;;;5.32;1.33;;;13.70;99.90;;;;;;5032801;28;20114;-61
2021/12/31 01:32:40;;;;;;;6.22;1.70;;;13.70;99.90;;;;;;5029235;28;20140;-62
2021/12/31 01:35:06;;;;;;;5.30;1.20;;;13.70;99.90;;;;;;5033214;28;20029;-62
2021/12/31 01:37:32;;;;;;;4.65;1.00;;;13.60;99.90;;;;;;5035223;28;20029;-62
2021/12/31 01:39:57;;;;;;;8.35;1.10;;;13.60;99.90;;;;;;5034008;28;20045;-62
2021/12/31 01:42:30;;;;;;;7.20;0.90;;;13.60;99.90;;;;;;5033217;28;20025;-63
2021/12/31 01:44:59;;;;;;;6.65;1.23;;;13.50;99.90;;;;;;5034503;28;20037;-62
2021/12/31 01:47:45;;;;;;;3.33;0.73;;;13.50;99.90;;;;;;5037114;28;20491;-62
2021/12/31 01:50:11;;;;;;;5.63;1.20;;;13.50;99.90;;;;;;5037140;28;20543;-61
2021/12/31 01:52:40;;;;;;;5.53;1.45;;;13.50;99.90;;;;;;5035148;28;20528;-61
2021/12/31 01:55:09;;;;;;;3.70;1.00;;;13.40;99.90;;;;;;5034730;28;20077;-61
2021/12/31 01:57:34;;;;;;;5.07;0.90;;;13.40;99.90;;;;;;5037630;28;20037;-62
2021/12/31 02:00:00;;;;;;;11.43;1.20;;;13.40;99.90;;;;;;5037175;28;20091;-62
2021/12/31 02:02:26;;;;;;;5.05;1.00;;;13.40;99.90;;;;;;5038630;28;20033;-64
2021/12/31 02:04:53;;;;;;;4.55;1.20;;;13.50;99.90;;;;;;5036072;28;20030;-62
2021/12/31 02:07:18;;;;;;;4.30;0.98;;;13.50;99.90;;;;;;5040271;28;20068;-62
2021/12/31 02:09:50;;;;;;;4.20;1.15;;;13.50;99.90;;;;;;5041536;28;20076;-61
2021/12/31 02:12:19;;;;;;;5.07;0.75;;;13.50;99.90;;;;;;5040730;28;20071;-62
2021/12/31 02:14:46;;;;;;;6.60;0.95;;;13.60;99.90;;;;;;5039124;28;20029;-62
2021/12/31 02:17:12;;;;;;;5.60;1.45;;;13.60;99.90;;;;;;5033616;28;20048;-62
2021/12/31 02:19:38;;;;;;;3.42;0.90;;;13.50;99.90;;;;;;5027412;28;20030;-61
2021/12/31 02:22:04;;;;;;;4.72;1.63;;;13.60;99.90;;;;;;5030666;28;20048;-61
2021/12/31 02:24:30;;;;;;;5.60;1.13;;;13.60;99.90;;;;;;5030170;28;20108;-63
2021/12/31 02:26:56;;;;;;;3.20;1.35;;;13.60;99.90;;;;;;5031572;28;20033;-62
2021/12/31 02:29:25;;;;;;;7.35;1.20;;;13.60;99.90;;;;;;5030560;28;20522;-61
2021/12/31 02:31:52;;;;;;;4.03;0.90;;;13.60;99.90;;;;;;5029762;28;20037;-61
2021/12/31 02:34:18;;;;;;;7.32;1.35;;;13.60;99.90;;;;;;5035093;28;20068;-62
2021/12/31 02:36:44;;;;;;;3.28;0.75;;;13.60;99.90;;;;;;5032237;28;20048;-61
2021/12/31 02:39:10;;;;;;;3.80;1.05;;;13.60;99.90;;;;;;5032925;28;20037;-61
2021/12/31 02:41:35;;;;;;;6.47;1.33;;;13.60;99.90;;;;;;5033508;28;20037;-62
2021/12/31 02:44:01;;;;;;;4.07;1.00;;;13.60;99.90;;;;;;5031486;28;20033;-62
2021/12/31 02:46:27;;;;;;;1.83;0.60;;;13.60;99.90;;;;;;5031679;28;20029;-63
2021/12/31 02:48:57;;;;;;;4.63;0.80;;;13.60;99.90;;;;;;5034725;28;20377;-63
2021/12/31 02:51:27;;;;;;;2.90;0.82;;;13.70;99.90;;;;;;5030261;28;20026;-66
2021/12/31 02:53:54;;;;;;;2.83;1.38;;;13.70;99.90;;;;;;5035095;28;20511;-62
2021/12/31 02:56:21;;;;;;;4.30;1.02;;;13.60;99.90;;;;;;5033758;28;20561;-61
2021/12/31 02:58:47;;;;;;;1.70;0.95;;;13.60;99.90;;;;;;5026830;28;20392;-61
2021/12/31 03:01:12;;;;;;;4.57;0.95;;;13.60;99.90;;;;;;5034209;28;20029;-61
2021/12/31 03:03:40;;;;;;;4.50;0.95;;;13.60;99.90;;;;;;5035408;28;20034;-61
2021/12/31 03:06:09;;;;;;;4.00;0.63;;;13.50;99.90;;;;;;5034078;28;20128;-62
2021/12/31 03:08:40;;;;;;;4.28;1.00;;;13.50;99.90;;;;;;5036285;28;20501;-62
2021/12/31 03:11:06;;;;;;;1.85;0.70;;;13.50;99.90;;;;;;5033735;28;20108;-61
2021/12/31 03:13:33;;;;;;;6.20;0.80;;;13.50;99.90;;;;;;5036179;28;20045;-62
2021/12/31 03:16:00;;;;;;;1.33;0.50;;;13.60;99.90;;;;;;5036960;28;20057;-62
2021/12/31 03:18:26;;;;;;;3.20;1.38;;;13.60;99.90;;;;;;5035959;28;20034;-62
2021/12/31 03:21:06;;;;;;;2.17;0.68;;;13.60;99.90;;;;;;5037784;28;20131;-62
2021/12/31 03:23:32;;;;;;;3.38;0.60;;;13.60;99.90;;;;;;5036024;28;20076;-61
2021/12/31 03:25:59;;;;;;;3.00;1.08;;;13.60;99.90;;;;;;5038596;28;20079;-62
2021/12/31 03:28:25;;;;;;;8.32;0.82;;;13.60;99.90;;;;;;5033464;28;20087;-61
2021/12/31 03:30:51;;;;;;;4.72;1.00;;;13.60;99.90;;;;;;5038505;28;20044;-61
2021/12/31 03:33:17;;;;;;;3.75;0.70;;;13.70;99.90;;;;;;5034490;28;20037;-62
2021/12/31 03:35:43;;;;;;;3.80;1.40;;;13.70;99.90;;;;;;5025535;28;20053;-62
2021/12/31 03:38:09;;;;;;;3.25;0.80;;;13.60;99.90;;;;;;5029684;28;21515;-61
2021/12/31 03:40:35;;;;;;;7.57;0.90;;;13.60;99.90;;;;;;5028829;28;20504;-60
2021/12/31 03:43:00;;;;;;;4.03;0.90;;;13.70;99.90;;;;;;5027175;28;20038;-62
2021/12/31 03:45:26;;;;;;;3.03;0.73;;;13.70;99.90;;;;;;5028608;28;20030;-62
2021/12/31 03:47:52;;;;;;;4.70;0.85;;;13.70;99.90;;;;;;5029558;28;20481;-62
2021/12/31 03:50:18;;;;;;;6.38;0.88;;;13.60;99.90;;;;;;5031179;28;20029;-62
2021/12/31 03:52:44;;;;;;;4.22;0.70;;;13.60;99.90;;;;;;5029587;28;20056;-62
2021/12/31 03:55:10;;;;;;;3.40;1.13;;;13.70;99.90;;;;;;5032447;28;20033;-62
2021/12/31 03:57:37;;;;;;;3.72;1.02;;;13.70;99.90;;;;;;5032332;28;20040;-63
2021/12/31 04:00:05;;;;;;;5.97;1.92;;;13.70;99.90;;;;;;5032276;28;20053;-61
2021/12/31 04:02:31;;;;;;;6.60;0.82;;;13.60;99.90;;;;;;5031558;28;20397;-62
2021/12/31 04:04:57;;;;;;;10.45;1.40;;;13.60;99.90;;;;;;5031746;28;20037;-62
2021/12/31 04:07:23;;;;;;;4.90;1.23;;;13.60;99.90;;;;;;5032958;28;20029;-64
2021/12/31 04:09:48;;;;;;;0.80;0.60;;;13.60;99.90;;;;;;5032062;28;20543;-62
2021/12/31 04:12:14;;;;;;;3.40;0.60;;;13.60;99.90;;;;;;5027389;28;20541;-61
2021/12/31 04:14:40;;;;;;;2.22;0.80;;;13.70;99.90;;;;;;5032025;28;20037;-63
2021/12/31 04:17:05;;;;;;;3.15;0.77;;;13.60;99.90;;;;;;5034739;28;20386;-61
2021/12/31 04:19:31;;;;;;;3.28;0.85;;;13.60;99.90;;;;;;5033673;28;20053;-61
2021/12/31 04:21:57;;;;;;;2.55;0.50;;;13.60;99.90;;;;;;5034707;28;20452;-61
2021/12/31 04:27:07;;;;;;;3.90;0.63;;;13.60;99.90;;;;;;5036372;28;20095;-61
2021/12/31 04:29:33;;;;;;;0.93;0.40;;;13.60;99.90;;;;;;5035151;28;20037;-62
2021/12/31 04:32:00;;;;;;;3.72;0.80;;;13.60;99.90;;;;;;5035939;28;20099;-62
2021/12/31 04:34:26;;;;;;;3.20;1.08;;;13.60;99.90;;;;;;5036083;28;20025;-62
2021/12/31 04:36:52;;;;;;;5.07;1.00;;;13.50;99.90;;;;;;5034582;28;20120;-62
2021/12/31 04:39:18;;;;;;;8.52;1.23;;;13.50;99.90;;;;;;5030659;28;20117;-62
2021/12/31 04:41:43;;;;;;;4.20;0.88;;;13.50;99.90;;;;;;5035695;28;20026;-62
2021/12/31 04:44:09;;;;;;;3.45;0.80;;;13.50;99.90;;;;;;5040513;28;20442;-61
2021/12/31 04:46:34;;;;;;;4.57;1.13;;;13.50;99.90;;;;;;5040377;28;20033;-62
2021/12/31 04:49:00;;;;;;;2.78;0.50;;;13.60;99.90;;;;;;5040745;28;20066;-61
2021/12/31 04:51:25;;;;;;;4.53;0.73;;;13.60;99.90;;;;;;5033421;28;20042;-62
2021/12/31 04:53:51;;;;;;;4.53;0.80;;;13.60;99.90;;;;;;5040139;28;20029;-61
2021/12/31 04:56:17;;;;;;;3.03;1.38;;;13.60;99.90;;;;;;5040481;28;20405;-62
2021/12/31 04:58:42;;;;;;;2.00;0.70;;;13.50;99.90;;;;;;5043233;28;20037;-61
2021/12/31 05:01:08;;;;;;;3.38;0.95;;;13.50;99.90;;;;;;5038804;28;20399;-62
2021/12/31 05:03:33;;;;;;;4.88;0.80;;;13.50;99.90;;;;;;5040627;28;20093;-62
2021/12/31 05:05:59;;;;;;;3.92;0.98;;;13.60;99.90;;;;;;5042461;28;20033;-62
2021/12/31 05:08:25;;;;;;;6.45;0.90;;;13.50;99.90;;;;;;5041569;28;20057;-62
2021/12/31 05:10:50;;;;;;;8.10;1.58;;;13.40;99.90;;;;;;5040624;28;20037;-62
2021/12/31 05:13:16;;;;;;;5.43;0.60;;;13.40;99.90;;;;;;5043239;28;20037;-61
2021/12/31 05:15:46;;;;;;;2.88;0.75;;;13.40;99.90;;;;;;5038261;28;20408;-61
2021/12/31 05:18:15;;;;;;;2.53;0.77;;;13.30;99.90;;;;;;5036496;28;20489;-61
2021/12/31 05:20:41;;;;;;;2.58;0.70;;;13.30;99.90;;;;;;5035281;28;20029;-61
2021/12/31 05:23:07;;;;;;;9.13;1.00;;;13.20;99.90;;;;;;5043276;28;20041;-61
2021/12/31 05:25:33;;;;;;;2.58;0.60;;;13.20;99.90;;;;;;5039859;28;20407;-62
2021/12/31 05:27:59;;;;;;;7.38;0.65;;;13.20;99.90;;;;;;5042031;28;20048;-62
2021/12/31 05:30:25;;;;;;;2.20;0.70;;;13.10;99.90;;;;;;5040927;28;20037;-62
2021/12/31 05:32:51;;;;;;;3.15;0.68;;;13.10;99.90;;;;;;5039696;28;20089;-62
2021/12/31 05:35:17;;;;;;;9.65;1.75;;;13.00;99.90;;;;;;5041936;28;20067;-62
2021/12/31 05:37:43;;;;;;;2.88;1.05;;;13.00;99.90;;;;;;5038867;28;20436;-61
2021/12/31 05:40:09;;;;;;;3.83;0.77;;;13.10;99.90;;;;;;5042629;28;20040;-62
2021/12/31 05:42:35;;;;;;;1.73;0.52;;;13.00;99.90;;;;;;5042640;28;20697;-63
2021/12/31 05:45:01;;;;;;;4.32;0.82;;;13.10;99.90;;;;;;5040058;28;20041;-62
2021/12/31 05:47:28;;;;;;;3.63;0.60;;;13.10;99.90;;;;;;5041128;28;20121;-61
2021/12/31 05:49:53;;;;;;;4.95;0.75;;;13.10;99.90;;;;;;5040376;28;20033;-61
2021/12/31 05:52:19;;;;;;;2.25;0.73;;;13.00;99.90;;;;;;5040151;28;20052;-61
2021/12/31 05:54:45;;;;;;;9.30;1.70;;;13.10;99.90;;;;;;5041589;28;20035;-62
2021/12/31 05:57:10;;;;;;;3.35;0.68;;;13.00;99.90;;;;;;5039608;28;20035;-62
2021/12/31 05:59:36;;;;;;;2.55;0.88;;;13.00;99.90;;;;;;5034656;28;20045;-61
2021/12/31 06:02:01;;;;;;;3.05;0.65;;;13.00;99.90;;;;;;5040274;28;20740;-61
2021/12/31 06:04:27;;;;;;;1.50;0.52;;;13.00;99.90;;;;;;5037614;28;20033;-62
2021/12/31 06:06:53;;;;;;;2.55;0.90;;;12.90;99.90;;;;;;5040889;28;20087;-62
2021/12/31 06:09:18;;;;;;;3.67;0.82;;;12.90;99.90;;;;;;5041316;28;20519;-61
2021/12/31 06:11:44;;;;;;;4.25;0.60;;;12.90;99.90;;;;;;5039158;28;20037;-61
2021/12/31 06:14:11;;;;;;;2.40;0.88;;;12.90;99.90;;;;;;5041338;28;20167;-62
2021/12/31 06:16:42;;;;;;;2.58;0.70;;;12.90;99.90;;;;;;5034826;28;20489;-61
2021/12/31 06:19:09;;;;;;;3.53;1.35;;;12.90;99.90;;;;;;5035482;28;20034;-61
2021/12/31 06:21:37;;;;;;;3.03;0.73;;;12.90;99.90;;;;;;5034560;28;20048;-62
2021/12/31 06:24:03;;;;;;;2.75;0.65;;;12.90;99.90;;;;;;5039067;28;20021;-62
2021/12/31 06:26:29;;;;;;;4.65;0.80;;;12.90;99.90;;;;;;5041314;28;20634;-63
2021/12/31 06:28:55;;;;;;;4.95;0.80;;;12.90;99.90;;;;;;5040233;28;20060;-63
2021/12/31 06:31:21;;;;;;;5.18;1.27;;;12.80;99.90;;;;;;5040284;28;20037;-62
2021/12/31 06:33:46;;;;;;;1.50;0.50;;;12.80;99.90;;;;;;5041570;28;20037;-63
2021/12/31 06:36:12;;;;;;;1.40;0.50;;;12.70;99.90;;;;;;5039140;28;20088;-62
2021/12/31 06:38:38;;;;;;;3.75;0.70;;;12.60;99.90;;;;;;5038300;28;20109;-63
2021/12/31 06:41:03;;;;;;;5.28;0.73;;;12.60;99.90;;;;;;5041906;28;20106;-62
2021/12/31 06:43:29;;;;;;;1.30;0.68;;;12.60;99.90;;;;;;5037996;28;20047;-64
2021/12/31 06:45:54;;;;;;;1.98;0.60;;;12.60;99.90;;;;;;5044263;28;20036;-62
2021/12/31 06:48:20;;;;;;;3.58;1.00;;;12.60;99.90;;;;;;5044590;28;20489;-63
2021/12/31 06:50:46;;;;;;;2.35;1.30;;;12.60;99.90;;;;;;5041244;28;20033;-63
2021/12/31 06:53:11;;;;;;;3.25;0.80;;;12.60;99.90;;;;;;5039982;28;20033;-62
2021/12/31 06:55:37;;;;;;;5.00;1.15;;;12.60;99.90;;;;;;5041491;28;20499;-62
2021/12/31 06:58:02;;;;;;;2.85;0.85;;;12.60;99.90;;;;;;5038377;28;20511;-62
2021/12/31 07:00:28;;;;;;;1.85;0.80;;;12.60;99.90;;;;;;5038502;28;20037;-62
2021/12/31 07:03:07;;;;;;;4.18;0.77;;;12.60;99.90;;;;;;5039275;28;20040;-62
2021/12/31 07:05:33;;;;;;;4.47;0.93;;;12.60;99.90;;;;;;5033737;28;20417;-62
2021/12/31 07:07:58;;;;;;;3.97;1.00;;;12.60;99.90;;;;;;5039539;28;20086;-62
2021/12/31 07:10:24;;;;;;;2.15;0.60;;;12.60;99.90;;;;;;5039305;28;20037;-63
2021/12/31 07:12:55;;;;;;;2.35;0.70;;;12.60;99.90;;;;;;5039529;28;20060;-62
2021/12/31 07:15:21;;;;;;;0.85;0.52;;;12.60;99.90;;;;;;5039708;28;20045;-62
2021/12/31 07:17:47;;;;;;;1.42;0.75;;;12.60;99.90;;;;;;5039177;28;20448;-62
2021/12/31 07:20:13;;;;;;;1.70;0.60;;;12.60;99.90;;;;;;5040208;28;20029;-62
2021/12/31 07:22:38;;;;;;;3.53;1.20;;;12.60;99.90;;;;;;5036491;28;20033;-62
2021/12/31 07:25:04;;;;;;;1.80;0.68;;;12.60;99.90;;;;;;5040146;28;20602;-62
2021/12/31 07:27:32;;;;;;;1.08;0.50;;;12.50;99.90;;;;;;5036945;28;20037;-62
2021/12/31 07:29:58;;;;;;;3.08;0.65;;;12.60;99.90;;;;;;5040611;28;20099;-62
2021/12/31 07:32:24;;;;;;;3.33;0.70;;;12.60;99.90;;;;;;5028115;28;20029;-64
2021/12/31 07:34:49;;;;;;;2.08;0.90;;;12.60;99.90;;;;;;5037480;28;20168;-62
2021/12/31 07:37:15;;;;;;;1.08;0.57;;;12.60;99.90;;;;;;5038272;28;20101;-62
2021/12/31 07:39:46;;;;;;;1.67;0.52;;;12.60;99.90;;;;;;5037779;28;20045;-61
2021/12/31 07:42:12;;;;;;;2.13;0.55;;;12.60;99.90;;;;;;5036773;28;20041;-62
2021/12/31 07:44:38;;;;;;;2.33;0.75;;;12.60;99.90;;;;;;5040352;28;20110;-62
2021/12/31 07:47:03;;;;;;;0.73;0.60;;;12.50;99.90;;;;;;5037314;28;20041;-62
2021/12/31 07:49:29;;;;;;;2.97;0.65;;;12.60;99.90;;;;;;5040675;28;20033;-62
2021/12/31 07:51:55;;;;;;;2.10;1.02;;;12.50;99.90;;;;;;5037721;28;20068;-62
2021/12/31 07:54:20;;;;;;;2.95;0.65;;;12.60;99.90;;;;;;5039857;28;20034;-62
2021/12/31 07:56:46;;;;;;;3.40;0.63;;;12.60;99.90;;;;;;5032236;28;20025;-62
2021/12/31 07:59:11;;;;;;;2.40;0.60;;;12.50;99.90;;;;;;5038350;28;20055;-61
2021/12/31 08:01:37;;;;;;;2.80;1.17;;;12.50;99.90;;;;;;5035919;28;20426;-61
2021/12/31 08:04:03;;;;;;;4.20;1.38;;;12.60;99.90;;;;;;5034918;28;20030;-63
2021/12/31 08:06:28;;;;;;;2.25;0.68;;;12.60;99.90;;;;;;5035194;28;20452;-63
2021/12/31 08:08:54;;;;;;;10.88;1.95;;;12.60;99.90;;;;;;5040234;28;20033;-62
2021/12/31 08:11:20;;;;;;;2.30;0.55;;;12.50;99.90;;;;;;5038111;28;20044;-62
2021/12/31 08:13:46;;;;;;;2.60;0.60;;;12.60;99.90;;;;;;5039514;28;20033;-61
2021/12/31 08:16:12;;;;;;;2.83;0.82;;;12.60;99.90;;;;;;5042694;28;20374;-61
2021/12/31 08:18:37;;;;;;;1.48;1.02;;;12.60;99.90;;;;;;5039578;28;20448;-62
2021/12/31 08:21:03;;;;;;;3.03;0.93;;;12.60;99.90;;;;;;5037174;28;20045;-62
2021/12/31 08:23:28;;;;;;;2.45;0.88;;;12.60;99.90;;;;;;5032026;28;20121;-67
2021/12/31 08:25:54;;;;;;;3.70;1.08;;;12.60;99.90;;;;;;5039069;28;20090;-62
2021/12/31 08:28:20;;;;;;;9.35;1.15;;;12.60;99.90;;;;;;5040289;28;20056;-61
2021/12/31 08:30:46;;;;;;;1.38;0.63;;;12.60;99.90;;;;;;5039125;28;20044;-62
2021/12/31 08:33:11;;;;;;;2.88;0.73;;;12.60;99.90;;;;;;5041742;28;20496;-62
2021/12/31 08:35:37;;;;;;;1.83;0.50;;;12.60;99.90;;;;;;5042758;28;20037;-61
2021/12/31 08:38:03;;;;;;;3.33;0.77;;;12.70;99.90;;;;;;5041195;28;20496;-62
2021/12/31 08:40:29;;;;;;;3.25;0.88;;;12.70;99.90;;;;;;5040492;28;20120;-62
2021/12/31 08:42:54;;;;;;;3.97;1.33;;;12.70;99.90;;;;;;5037313;28;20218;-62
2021/12/31 08:45:20;;;;;;;2.42;0.77;;;12.70;99.90;;;;;;5037763;28;20052;-61
2021/12/31 08:47:46;;;;;;;1.88;1.00;;;12.70;99.90;;;;;;5041532;28;20037;-62
2021/12/31 08:50:12;;;;;;;2.90;0.95;;;12.80;99.90;;;;;;5041763;28;20039;-62
2021/12/31 08:52:38;;;;;;;7.78;1.77;;;12.80;99.90;;;;;;5042682;28;20762;-62
2021/12/31 08:55:05;;;;;;;2.65;1.08;;;12.80;99.90;;;;;;5027744;28;20124;-62
2021/12/31 08:57:30;;;;;;;2.80;0.77;;;12.80;99.90;;;;;;5042864;28;20024;-62
2021/12/31 08:59:56;;;;;;;2.22;0.90;;;12.80;99.90;;;;;;5034102;28;20112;-62
2021/12/31 09:02:22;;;;;;;5.28;0.98;;;12.80;99.90;;;;;;5042307;28;20032;-62
2021/12/31 09:04:47;;;;;;;7.25;1.70;;;12.80;99.90;;;;;;5039889;28;20036;-62
2021/12/31 09:07:13;;;;;;;4.28;1.00;;;12.80;99.90;;;;;;5041166;28;20116;-62
2021/12/31 09:09:38;;;;;;;3.47;0.82;;;12.80;99.90;;;;;;5029909;28;20451;-62
2021/12/31 09:12:04;;;;;;;3.28;1.20;;;12.80;99.90;;;;;;5028750;28;20633;-61
2021/12/31 09:14:30;;;;;;;1.42;0.45;;;12.80;99.90;;;;;;5030264;28;20037;-62
2021/12/31 09:16:57;;;;;;;1.85;0.52;;;12.80;99.90;;;;;;5030197;28;20623;-62
2021/12/31 09:19:22;;;;;;;1.23;0.60;;;12.80;99.90;;;;;;5030543;28;20029;-61
2021/12/31 09:21:49;;;;;;;4.10;0.90;;;12.90;99.90;;;;;;5029732;28;20036;-62
2021/12/31 09:24:14;;;;;;;2.63;0.80;;;12.90;99.90;;;;;;5030897;28;20704;-62
2021/12/31 09:26:40;;;;;;;2.50;1.33;;;12.90;99.90;;;;;;5031498;28;20053;-61
2021/12/31 09:29:06;;;;;;;1.88;0.85;;;13.00;99.90;;;;;;5030733;28;20041;-62
2021/12/31 09:31:31;;;;;;;4.53;0.85;;;13.10;99.90;;;;;;5029898;28;20037;-62
2021/12/31 09:33:57;;;;;;;2.13;0.90;;;13.10;99.90;;;;;;5030093;28;20128;-61
2021/12/31 09:36:23;;;;;;;3.10;0.75;;;13.20;99.90;;;;;;5029383;28;20111;-61
2021/12/31 09:38:49;;;;;;;1.95;0.75;;;13.20;99.90;;;;;;5029829;28;20048;-61
2021/12/31 09:41:14;;;;;;;5.03;0.88;;;13.20;99.90;;;;;;5028259;28;20041;-62
2021/12/31 09:43:47;;;;;;;1.88;1.00;;;13.10;99.90;;;;;;5030372;28;20441;-62
2021/12/31 09:46:13;;;;;;;2.15;0.82;;;13.10;99.90;;;;;;5030884;28;20040;-62
2021/12/31 09:48:38;;;;;;;1.58;0.85;;;13.10;99.90;;;;;;5029578;28;20045;-62
2021/12/31 09:51:07;;;;;;;2.17;0.93;;;13.10;99.90;;;;;;5029817;28;20152;-62
2021/12/31 09:53:32;;;;;;;2.72;1.15;;;13.10;99.90;;;;;;5027080;28;20485;-62
2021/12/31 09:55:58;;;;;;;4.90;0.80;;;13.00;99.90;;;;;;5030685;28;20041;-62
2021/12/31 09:58:26;;;;;;;3.20;1.00;;;13.00;99.90;;;;;;5030883;28;20415;-63
2021/12/31 10:00:58;;;;;;;3.80;0.80;;;13.00;99.90;;;;;;5024166;28;20030;-61
2021/12/31 10:03:25;;;;;;;2.90;1.42;;;13.00;99.90;;;;;;5028374;28;20041;-68
2021/12/31 10:05:59;;;;;;;4.90;1.02;;;13.10;99.90;;;;;;5029885;28;20069;-62
2021/12/31 10:08:30;;;;;;;5.72;1.50;;;13.10;99.90;;;;;;5030701;28;20037;-63
2021/12/31 10:11:10;;;;;;;4.18;1.38;;;13.00;99.90;;;;;;5030812;28;20037;-62
2021/12/31 10:13:44;;;;;;;5.05;1.58;;;13.10;99.90;;;;;;5039812;28;20065;-62
2021/12/31 10:16:27;;;;;;;3.13;0.73;;;13.00;99.90;;;;;;5043401;28;20047;-62
2021/12/31 10:19:14;;;;;;;4.63;1.00;;;13.10;99.90;;;;;;5051036;28;20033;-62
2021/12/31 10:21:41;;;;;;;4.75;0.70;;;13.10;99.90;;;;;;5029266;28;20037;-62
2021/12/31 10:24:23;;;;;;;5.57;0.63;;;13.10;99.90;;;;;;5031954;28;20140;-62
2021/12/31 10:26:53;;;;;;;3.83;1.30;;;13.10;99.90;;;;;;5032439;28;20041;-62
2021/12/31 10:29:20;;;;;;;10.85;1.15;;;13.10;99.90;;;;;;5030015;28;20512;-61
2021/12/31 10:31:48;;;;;;;4.72;0.85;;;13.10;99.90;;;;;;5029196;28;20038;-62
2021/12/31 10:34:33;;;;;;;2.13;0.73;;;13.10;99.90;;;;;;5028325;28;20447;-62
2021/12/31 10:37:03;;;;;;;5.72;1.35;;;13.10;99.90;;;;;;5027325;28;20401;-61
2021/12/31 10:39:37;;;;;;;4.03;1.05;;;13.20;99.90;;;;;;5029445;28;20029;-63
2021/12/31 10:42:04;;;;;;;3.65;1.13;;;13.20;99.90;;;;;;5032926;28;20033;-62
2021/12/31 10:45:03;;;;;;;4.15;1.10;;;13.20;99.90;;;;;;5029667;28;20115;-62
2021/12/31 10:47:38;;;;;;;6.57;0.88;;;13.20;99.90;;;;;;5025139;28;20558;-62
2021/12/31 10:50:06;;;;;;;4.10;1.00;;;13.20;99.90;;;;;;5029159;28;20044;-61
2021/12/31 10:52:39;;;;;;;2.00;0.73;;;13.30;99.90;;;;;;5029615;28;20040;-62
2021/12/31 10:55:25;;;;;;;2.97;0.85;;;13.30;99.90;;;;;;5028067;28;20025;-62
2021/12/31 10:57:53;;;;;;;8.55;1.30;;;13.40;99.90;;;;;;5037934;28;20060;-61
2021/12/31 11:00:20;;;;;;;3.65;1.20;;;13.50;99.90;;;;;;5041335;28;20033;-62
2021/12/31 11:02:46;;;;;;;4.05;1.10;;;13.60;99.90;;;;;;5037829;28;20037;-61
2021/12/31 11:05:13;;;;;;;8.07;0.90;;;13.90;99.90;;;;;;5037615;28;20108;-62
2021/12/31 11:07:40;;;;;;;3.55;1.10;;;14.30;99.90;;;;;;5038785;28;20033;-62
2021/12/31 11:10:07;;;;;;;1.92;1.00;;;14.40;99.90;;;;;;5039348;28;20030;-62
2021/12/31 11:12:34;;;;;;;2.88;0.90;;;14.30;99.90;;;;;;5039727;28;20037;-62
2021/12/31 11:15:00;;;;;;;7.20;1.75;;;14.30;99.90;;;;;;5038546;28;20481;-62
2021/12/31 11:17:25;;;;;;;6.10;1.67;;;14.30;99.90;;;;;;5040471;28;20060;-62
2021/12/31 11:19:52;;;;;;;5.75;1.50;;;14.30;99.90;;;;;;5036802;28;20064;-61
2021/12/31 11:22:22;;;;;;;4.63;1.70;;;14.20;99.90;;;;;;5033716;28;20116;-62
2021/12/31 11:24:47;;;;;;;6.45;3.47;;;14.10;99.90;;;;;;5033114;28;20443;-62
2021/12/31 11:27:34;;;;;;;6.15;2.08;;;14.10;99.90;;;;;;5040427;28;20029;-61
2021/12/31 11:30:01;;;;;;;6.15;1.70;;;14.10;99.90;;;;;;5034603;28;20551;-62
2021/12/31 11:32:42;;;;;;;5.15;1.75;;;14.00;99.90;;;;;;5039952;28;20043;-63
2021/12/31 11:35:36;;;;;;;3.75;1.20;;;14.00;99.90;;;;;;5033154;28;20038;-62
2021/12/31 11:38:42;;;;;;;5.32;1.27;;;13.90;99.90;;;;;;5033962;28;20132;-62
2021/12/31 11:41:14;;;;;;;3.65;1.23;;;13.80;99.90;;;;;;5038282;28;20025;-61
2021/12/31 11:43:41;;;;;;;4.95;0.93;;;13.80;99.90;;;;;;5038643;28;20068;-62
2021/12/31 11:48:45;;;;;;;3.08;0.98;;;13.70;99.90;;;;;;5039506;28;20045;-62
2021/12/31 11:51:12;;;;;;;2.95;1.27;;;13.60;99.90;;;;;;5041961;28;20032;-62
2021/12/31 11:53:56;;;;;;;4.70;1.48;;;13.60;99.90;;;;;;5040344;28;20122;-62
2021/12/31 11:56:47;;;;;;;5.45;1.05;;;13.60;99.90;;;;;;5037554;28;20052;-61
2021/12/31 11:59:16;;;;;;;3.30;1.08;;;13.50;99.90;;;;;;5038324;28;20043;-62
2021/12/31 12:01:48;;;;;;;6.00;1.55;;;13.60;99.90;;;;;;5041280;28;20403;-62
2021/12/31 12:04:29;;;;;;;5.70;1.02;;;13.50;99.90;;;;;;5044386;28;20033;-62
2021/12/31 12:06:56;;;;;;;4.15;1.35;;;13.50;99.90;;;;;;5038914;28;20125;-62
2021/12/31 12:09:23;;;;;;;3.97;1.15;;;13.50;99.90;;;;;;5044540;28;20051;-61
2021/12/31 12:12:03;;;;;;;4.10;1.65;;;13.50;99.90;;;;;;5040475;28;20030;-62
2021/12/31 12:14:29;;;;;;;;;;;13.50;99.90;;;;;;5040346;28;20037;-63
2021/12/31 12:16:57;;;;;;;4.25;1.30;;;13.70;99.90;;;;;;5042198;28;19916;-62
2021/12/31 12:19:42;;;;;;;4.50;1.13;;;13.80;99.90;;;;;;5040162;28;20042;-62
2021/12/31 12:22:08;;;;;;;8.10;1.70;;;13.80;99.90;;;;;;5036263;28;20044;-63
2021/12/31 12:24:33;;;;;;;7.40;1.73;;;13.80;99.90;;;;;;5040769;28;20036;-63
2021/12/31 12:27:03;;;;;;;15.63;3.38;;;13.70;99.90;;;;;;5042376;28;20038;-62
2021/12/31 12:29:29;;;;;;;6.80;1.77;;;13.70;99.90;;;;;;5042205;28;20059;-63
2021/12/31 12:32:08;;;;;;;5.88;1.92;;;13.60;99.90;;;;;;5041455;28;20303;-62
2021/12/31 12:34:33;;;;;;;5.47;1.50;;;13.50;99.90;;;;;;5040303;28;20052;-62
2021/12/31 12:37:00;;;;;;;7.22;1.98;;;13.50;99.90;;;;;;5041821;28;20060;-61
2021/12/31 12:39:26;;;;;;;6.88;1.60;;;13.50;99.90;;;;;;5041390;28;20056;-62
2021/12/31 12:41:51;;;;;;;6.40;1.60;;;13.50;99.90;;;;;;5031329;28;20453;-62
2021/12/31 12:44:17;;;;;;;6.35;1.20;;;13.50;99.90;;;;;;5039938;28;20129;-62
2021/12/31 12:46:52;;;;;;;4.93;1.30;;;13.50;99.90;;;;;;5042622;28;20029;-62
2021/12/31 12:49:18;;;;;;;7.03;1.48;;;13.50;99.90;;;;;;5036062;28;20057;-62
2021/12/31 12:51:45;;;;;;;5.03;2.22;;;13.40;99.90;;;;;;5042311;28;20442;-62
2021/12/31 12:54:13;;;;;;;6.28;1.88;;;13.40;99.90;;;;;;5039758;28;20116;-61
2021/12/31 12:56:39;;;;;;;5.18;1.88;;;13.40;99.90;;;;;;5040661;28;20028;-62
2021/12/31 12:59:04;;;;;;;3.13;1.13;;;13.40;99.90;;;;;;5040286;28;20082;-62